sensor_id;sensor_type;location;lat;lon;timestamp;pressure;altitude;pressure_sealevel;temperature;humidity
16664;BME280;8445;51.270;9.434;2022-11-15T00:00:53;99086.34;;;12.22;76.90
16664;BME280;8445;51.270;9.434;2022-11-15T00:03:38;99076.72;;;12.21;77.10
16664;BME280;8445;51.270;9.434;2022-11-15T00:06:22;99083.69;;;12.22;76.87
16664;BME280;8445;51.270;9.434;2022-11-15T00:09:07;99088.28;;;12.20;76.80
16664;BME280;8445;51.270;9.434;2022-11-15T00:11:52;99089.97;;;12.21;76.84
16664;BME280;8445;51.270;9.434;2022-11-15T00:14:36;99084.66;;;12.21;76.85
16664;BME280;8445;51.270;9.434;2022-11-15T00:17:21;99091.66;;;12.22;76.71
16664;BME280;8445;51.270;9.434;2022-11-15T00:20:06;99086.47;;;12.21;77.05
16664;BME280;8445;51.270;9.434;2022-11-15T00:22:51;99080.34;;;12.20;76.89
16664;BME280;8445;51.270;9.434;2022-11-15T00:25:36;99075.03;;;12.20;77.05
16664;BME280;8445;51.270;9.434;2022-11-15T00:28:20;99075.03;;;12.20;76.77
16664;BME280;8445;51.270;9.434;2022-11-15T00:31:09;99076.72;;;12.21;77.17
16664;BME280;8445;51.270;9.434;2022-11-15T00:33:54;99075.03;;;12.20;76.99
16664;BME280;8445;51.270;9.434;2022-11-15T00:36:39;99082.03;;;12.21;76.87
16664;BME280;8445;51.270;9.434;2022-11-15T00:39:24;99078.13;;;12.25;76.66
16664;BME280;8445;51.270;9.434;2022-11-15T00:42:08;99083.44;;;12.25;76.57
16664;BME280;8445;51.270;9.434;2022-11-15T00:44:53;99075.47;;;12.25;76.64
16664;BME280;8445;51.270;9.434;2022-11-15T00:47:37;99071.16;;;12.24;76.44
16664;BME280;8445;51.270;9.434;2022-11-15T00:50:22;99078.13;;;12.25;76.57
16664;BME280;8445;51.270;9.434;2022-11-15T00:53:07;99091.66;;;12.22;76.54
16664;BME280;8445;51.270;9.434;2022-11-15T00:55:51;99089.00;;;12.22;76.57
16664;BME280;8445;51.270;9.434;2022-11-15T00:58:36;99091.66;;;12.22;76.49
16664;BME280;8445;51.270;9.434;2022-11-15T01:01:20;99091.50;;;12.24;76.54
16664;BME280;8445;51.270;9.434;2022-11-15T01:04:05;99090.81;;;12.22;76.54
16664;BME280;8445;51.270;9.434;2022-11-15T01:06:50;99087.19;;;12.23;76.54
16664;BME280;8445;51.270;9.434;2022-11-15T01:09:35;99088.03;;;12.23;76.31
16664;BME280;8445;51.270;9.434;2022-11-15T01:12:20;99089.00;;;12.22;76.38
16664;BME280;8445;51.270;9.434;2022-11-15T01:15:05;99081.03;;;12.22;76.52
16664;BME280;8445;51.270;9.434;2022-11-15T01:17:50;99073.34;;;12.19;76.49
16664;BME280;8445;51.270;9.434;2022-11-15T01:20:39;99081.31;;;12.19;76.45
16664;BME280;8445;51.270;9.434;2022-11-15T01:23:25;99084.78;;;12.20;76.42
16664;BME280;8445;51.270;9.434;2022-11-15T01:26:13;99086.47;;;12.21;76.49
16664;BME280;8445;51.270;9.434;2022-11-15T01:28:58;99076.13;;;12.18;76.82
16664;BME280;8445;51.270;9.434;2022-11-15T01:31:43;99067.91;;;12.21;76.62
16664;BME280;8445;51.270;9.434;2022-11-15T01:34:28;99075.03;;;12.20;76.68
16664;BME280;8445;51.270;9.434;2022-11-15T01:37:12;99077.53;;;12.22;76.57
16664;BME280;8445;51.270;9.434;2022-11-15T01:39:57;99076.72;;;12.21;76.64
16664;BME280;8445;51.270;9.434;2022-11-15T01:42:44;99066.09;;;12.21;76.74
16664;BME280;8445;51.270;9.434;2022-11-15T01:45:28;99058.97;;;12.22;76.54
16664;BME280;8445;51.270;9.434;2022-11-15T01:48:13;99060.81;;;12.21;76.66
16664;BME280;8445;51.270;9.434;2022-11-15T01:51:01;99059.13;;;12.20;76.68
16664;BME280;8445;51.270;9.434;2022-11-15T01:53:52;99060.09;;;12.19;76.83
16664;BME280;8445;51.270;9.434;2022-11-15T01:56:51;99045.16;;;12.18;76.73
16664;BME280;8445;51.270;9.434;2022-11-15T01:59:40;99033.41;;;12.11;76.71
16664;BME280;8445;51.270;9.434;2022-11-15T02:02:26;99032.44;;;12.02;76.74
16664;BME280;8445;51.270;9.434;2022-11-15T02:05:11;99034.72;;;11.95;76.95
16664;BME280;8445;51.270;9.434;2022-11-15T02:07:56;99033.41;;;11.80;76.51
16664;BME280;8445;51.270;9.434;2022-11-15T02:10:40;99022.59;;;11.62;76.58
16664;BME280;8445;51.270;9.434;2022-11-15T02:13:25;99025.06;;;11.53;76.54
16664;BME280;8445;51.270;9.434;2022-11-15T02:40:23;99011.84;;;11.32;77.17
16664;BME280;8445;51.270;9.434;2022-11-15T02:43:15;99009.91;;;11.34;77.07
16664;BME280;8445;51.270;9.434;2022-11-15T02:46:50;99009.56;;;11.49;77.22
16664;BME280;8445;51.270;9.434;2022-11-15T02:49:58;99006.22;;;11.47;77.12
16664;BME280;8445;51.270;9.434;2022-11-15T02:52:51;99011.00;;;11.53;77.33
16664;BME280;8445;51.270;9.434;2022-11-15T02:55:46;99007.81;;;11.59;77.21
16664;BME280;8445;51.270;9.434;2022-11-15T03:09:23;98995.03;;;11.74;77.00
16664;BME280;8445;51.270;9.434;2022-11-15T03:11:58;98991.69;;;11.72;77.10
16664;BME280;8445;51.270;9.434;2022-11-15T03:15:06;98993.94;;;11.77;77.26
16664;BME280;8445;51.270;9.434;2022-11-15T03:18:05;98990.59;;;11.75;77.14
16664;BME280;8445;51.270;9.434;2022-11-15T03:20:55;98987.94;;;11.75;77.10
16664;BME280;8445;51.270;9.434;2022-11-15T03:23:43;98978.31;;;11.74;77.20
16664;BME280;8445;51.270;9.434;2022-11-15T03:26:29;98986.13;;;11.75;77.04
16664;BME280;8445;51.270;9.434;2022-11-15T03:29:32;98974.41;;;11.78;76.91
16664;BME280;8445;51.270;9.434;2022-11-15T03:32:26;98981.94;;;11.73;76.88
16664;BME280;8445;51.270;9.434;2022-11-15T03:35:18;98991.13;;;11.68;76.84
16664;BME280;8445;51.270;9.434;2022-11-15T03:41:00;98987.78;;;11.66;77.06
16664;BME280;8445;51.270;9.434;2022-11-15T03:43:57;98985.25;;;11.65;77.16
16664;BME280;8445;51.270;9.434;2022-11-15T03:46:57;98982.75;;;11.63;77.19
16664;BME280;8445;51.270;9.434;2022-11-15T03:49:54;98987.44;;;11.60;77.18
16664;BME280;8445;51.270;9.434;2022-11-15T03:52:41;98985.31;;;11.53;77.24
16664;BME280;8445;51.270;9.434;2022-11-15T03:55:26;98982.38;;;11.47;77.18
16664;BME280;8445;51.270;9.434;2022-11-15T03:58:11;98975.47;;;11.34;76.82
16664;BME280;8445;51.270;9.434;2022-11-15T04:00:55;98971.63;;;11.17;76.57
16664;BME280;8445;51.270;9.434;2022-11-15T04:03:40;98970.28;;;11.02;76.53
16664;BME280;8445;51.270;9.434;2022-11-15T04:06:25;98969.38;;;10.91;76.61
16664;BME280;8445;51.270;9.434;2022-11-15T04:09:09;98977.97;;;10.83;76.57
16664;BME280;8445;51.270;9.434;2022-11-15T04:11:54;98973.78;;;10.81;76.67
16664;BME280;8445;51.270;9.434;2022-11-15T04:14:38;98967.91;;;10.77;76.73
16664;BME280;8445;51.270;9.434;2022-11-15T04:17:51;98978.72;;;10.74;76.93
16664;BME280;8445;51.270;9.434;2022-11-15T04:20:35;98976.09;;;10.74;76.94
16664;BME280;8445;51.270;9.434;2022-11-15T04:23:38;98970.28;;;10.80;77.02
16664;BME280;8445;51.270;9.434;2022-11-15T04:26:42;98975.31;;;10.83;77.26
16664;BME280;8445;51.270;9.434;2022-11-15T04:29:27;98975.78;;;10.89;77.22
16664;BME280;8445;51.270;9.434;2022-11-15T04:32:20;98979.84;;;10.93;77.38
16664;BME280;8445;51.270;9.434;2022-11-15T04:35:05;98968.75;;;10.99;77.28
16664;BME280;8445;51.270;9.434;2022-11-15T04:37:49;98968.78;;;11.09;77.33
16664;BME280;8445;51.270;9.434;2022-11-15T04:40:35;98964.09;;;11.12;77.38
16664;BME280;8445;51.270;9.434;2022-11-15T04:43:20;98968.03;;;11.18;77.43
16664;BME280;8445;51.270;9.434;2022-11-15T04:46:05;98973.63;;;11.25;77.35
16664;BME280;8445;51.270;9.434;2022-11-15T04:48:50;98969.75;;;11.29;77.23
16664;BME280;8445;51.270;9.434;2022-11-15T04:51:35;98966.13;;;11.30;77.16
16664;BME280;8445;51.270;9.434;2022-11-15T04:54:19;98963.16;;;11.23;77.02
16664;BME280;8445;51.270;9.434;2022-11-15T04:57:04;98963.84;;;11.16;76.86
16664;BME280;8445;51.270;9.434;2022-11-15T04:59:48;98963.75;;;11.06;76.96
16664;BME280;8445;51.270;9.434;2022-11-15T05:02:33;98964.16;;;11.01;76.88
16664;BME280;8445;51.270;9.434;2022-11-15T05:05:44;98970.88;;;11.05;77.02
16664;BME280;8445;51.270;9.434;2022-11-15T05:08:29;98964.34;;;11.09;77.27
16664;BME280;8445;51.270;9.434;2022-11-15T05:11:13;98969.97;;;11.16;77.25
16664;BME280;8445;51.270;9.434;2022-11-15T05:13:57;98972.19;;;11.21;77.13
16664;BME280;8445;51.270;9.434;2022-11-15T05:16:42;98971.13;;;11.23;77.22
16664;BME280;8445;51.270;9.434;2022-11-15T05:19:27;98970.72;;;11.28;77.34
16664;BME280;8445;51.270;9.434;2022-11-15T05:22:11;98974.78;;;11.32;77.14
16664;BME280;8445;51.270;9.434;2022-11-15T05:24:56;98965.75;;;11.35;77.08
16664;BME280;8445;51.270;9.434;2022-11-15T05:27:40;98960.31;;;11.36;77.17
16664;BME280;8445;51.270;9.434;2022-11-15T05:30:25;98979.53;;;11.38;77.06
16664;BME280;8445;51.270;9.434;2022-11-15T05:33:10;98974.50;;;11.35;77.21
16664;BME280;8445;51.270;9.434;2022-11-15T05:36:25;98965.06;;;11.42;77.20
16664;BME280;8445;51.270;9.434;2022-11-15T05:39:10;98972.56;;;11.37;77.19
16664;BME280;8445;51.270;9.434;2022-11-15T05:42:05;98967.00;;;11.40;77.52
16664;BME280;8445;51.270;9.434;2022-11-15T05:44:52;98974.00;;;11.41;77.31
16664;BME280;8445;51.270;9.434;2022-11-15T05:47:38;98967.88;;;11.41;77.46
16664;BME280;8445;51.270;9.434;2022-11-15T05:50:24;98962.84;;;11.38;77.35
16664;BME280;8445;51.270;9.434;2022-11-15T05:53:12;98975.66;;;11.42;77.53
16664;BME280;8445;51.270;9.434;2022-11-15T05:55:57;98968.56;;;11.43;77.19
16664;BME280;8445;51.270;9.434;2022-11-15T05:58:43;98959.06;;;11.40;77.49
16664;BME280;8445;51.270;9.434;2022-11-15T06:01:27;98965.34;;;11.39;77.32
16664;BME280;8445;51.270;9.434;2022-11-15T06:04:12;98963.66;;;11.38;77.56
16664;BME280;8445;51.270;9.434;2022-11-15T06:06:58;98960.03;;;11.39;77.52
16664;BME280;8445;51.270;9.434;2022-11-15T06:09:43;98967.97;;;11.39;77.40
16664;BME280;8445;51.270;9.434;2022-11-15T06:12:28;98965.94;;;11.43;77.45
16664;BME280;8445;51.270;9.434;2022-11-15T06:15:12;98967.00;;;11.40;77.49
16664;BME280;8445;51.270;9.434;2022-11-15T06:17:57;98952.81;;;11.41;77.24
16664;BME280;8445;51.270;9.434;2022-11-15T06:20:42;98964.50;;;11.39;77.29
16664;BME280;8445;51.270;9.434;2022-11-15T06:23:28;98977.31;;;11.34;77.15
16664;BME280;8445;51.270;9.434;2022-11-15T06:26:12;98978.53;;;11.30;77.10
16664;BME280;8445;51.270;9.434;2022-11-15T06:28:57;98971.22;;;11.22;77.07
16664;BME280;8445;51.270;9.434;2022-11-15T06:31:41;98969.66;;;11.09;77.02
16664;BME280;8445;51.270;9.434;2022-11-15T06:34:26;98971.75;;;10.94;76.99
16664;BME280;8445;51.270;9.434;2022-11-15T06:37:10;98966.09;;;10.78;76.84
16664;BME280;8445;51.270;9.434;2022-11-15T06:39:55;98967.38;;;10.62;77.00
16664;BME280;8445;51.270;9.434;2022-11-15T06:42:39;98973.34;;;10.43;76.56
16664;BME280;8445;51.270;9.434;2022-11-15T06:45:25;98961.84;;;10.21;76.65
16664;BME280;8445;51.270;9.434;2022-11-15T06:48:09;98960.44;;;10.06;76.51
16664;BME280;8445;51.270;9.434;2022-11-15T06:50:56;98958.91;;;9.92;76.53
16664;BME280;8445;51.270;9.434;2022-11-15T06:53:41;98960.75;;;9.80;76.53
16664;BME280;8445;51.270;9.434;2022-11-15T06:56:26;98956.41;;;9.68;76.49
16664;BME280;8445;51.270;9.434;2022-11-15T06:59:10;98951.84;;;9.58;76.61
16664;BME280;8445;51.270;9.434;2022-11-15T07:01:55;98948.25;;;9.48;76.56
16664;BME280;8445;51.270;9.434;2022-11-15T07:04:40;98960.28;;;9.41;76.45
16664;BME280;8445;51.270;9.434;2022-11-15T07:07:24;98959.31;;;9.30;76.86
16664;BME280;8445;51.270;9.434;2022-11-15T07:10:09;98959.78;;;9.24;76.90
16664;BME280;8445;51.270;9.434;2022-11-15T07:12:55;98960.03;;;9.21;76.51
16664;BME280;8445;51.270;9.434;2022-11-15T07:15:39;98968.19;;;9.18;76.89
16664;BME280;8445;51.270;9.434;2022-11-15T07:18:24;98961.44;;;9.14;76.95
16664;BME280;8445;51.270;9.434;2022-11-15T07:21:10;98965.19;;;9.11;77.28
16664;BME280;8445;51.270;9.434;2022-11-15T07:23:55;98964.56;;;9.08;77.11
16664;BME280;8445;51.270;9.434;2022-11-15T07:26:39;98970.06;;;9.04;77.31
16664;BME280;8445;51.270;9.434;2022-11-15T07:29:24;98971.75;;;9.05;76.87
16664;BME280;8445;51.270;9.434;2022-11-15T07:32:09;98973.66;;;9.03;77.59
16664;BME280;8445;51.270;9.434;2022-11-15T07:34:54;98977.88;;;9.06;77.15
16664;BME280;8445;51.270;9.434;2022-11-15T07:37:38;98983.88;;;9.08;77.35
16664;BME280;8445;51.270;9.434;2022-11-15T07:40:24;98989.03;;;9.10;77.26
16664;BME280;8445;51.270;9.434;2022-11-15T07:43:09;98976.06;;;9.07;77.27
16664;BME280;8445;51.270;9.434;2022-11-15T07:45:54;98986.97;;;9.13;77.57
16664;BME280;8445;51.270;9.434;2022-11-15T07:48:39;98986.66;;;9.18;77.67
16664;BME280;8445;51.270;9.434;2022-11-15T07:51:24;98988.91;;;9.23;77.74
16664;BME280;8445;51.270;9.434;2022-11-15T07:54:09;98987.41;;;9.31;78.50
16664;BME280;8445;51.270;9.434;2022-11-15T07:56:53;98993.16;;;9.48;78.67
16664;BME280;8445;51.270;9.434;2022-11-15T07:59:38;98987.63;;;9.74;79.07
16664;BME280;8445;51.270;9.434;2022-11-15T08:02:22;98995.50;;;10.08;79.48
16664;BME280;8445;51.270;9.434;2022-11-15T08:05:07;98988.25;;;10.44;79.66
16664;BME280;8445;51.270;9.434;2022-11-15T08:07:51;98987.38;;;10.76;79.53
16664;BME280;8445;51.270;9.434;2022-11-15T08:10:37;98977.72;;;11.08;79.36
16664;BME280;8445;51.270;9.434;2022-11-15T08:13:22;98981.50;;;11.36;79.22
16664;BME280;8445;51.270;9.434;2022-11-15T08:16:07;98977.19;;;11.66;79.24
16664;BME280;8445;51.270;9.434;2022-11-15T08:18:55;98977.66;;;11.91;79.41
16664;BME280;8445;51.270;9.434;2022-11-15T08:21:39;98967.13;;;12.11;79.79
16664;BME280;8445;51.270;9.434;2022-11-15T08:24:26;98962.56;;;12.33;79.29
16664;BME280;8445;51.270;9.434;2022-11-15T08:27:11;98962.00;;;12.39;77.54
16664;BME280;8445;51.270;9.434;2022-11-15T08:30:01;98959.50;;;12.27;77.28
16664;BME280;8445;51.270;9.434;2022-11-15T08:32:46;98958.91;;;12.14;77.46
16664;BME280;8445;51.270;9.434;2022-11-15T08:35:31;98952.44;;;11.97;77.45
16664;BME280;8445;51.270;9.434;2022-11-15T08:38:15;98950.44;;;11.89;77.14
16664;BME280;8445;51.270;9.434;2022-11-15T08:41:03;98950.44;;;11.79;77.56
16664;BME280;8445;51.270;9.434;2022-11-15T08:43:48;98944.00;;;11.72;77.61
16664;BME280;8445;51.270;9.434;2022-11-15T08:46:35;98943.16;;;11.71;78.37
16664;BME280;8445;51.270;9.434;2022-11-15T08:49:20;98948.78;;;11.88;78.78
16664;BME280;8445;51.270;9.434;2022-11-15T08:52:04;98940.34;;;12.14;79.47
16664;BME280;8445;51.270;9.434;2022-11-15T08:54:49;98935.75;;;12.45;79.48
16664;BME280;8445;51.270;9.434;2022-11-15T08:57:34;98939.63;;;12.81;79.75
16664;BME280;8445;51.270;9.434;2022-11-15T09:00:19;98942.50;;;13.07;79.37
16664;BME280;8445;51.270;9.434;2022-11-15T09:03:06;98932.53;;;13.29;79.78
16664;BME280;8445;51.270;9.434;2022-11-15T09:05:59;98922.94;;;13.56;78.53
16664;BME280;8445;51.270;9.434;2022-11-15T09:08:46;98928.84;;;13.77;79.65
16664;BME280;8445;51.270;9.434;2022-11-15T09:11:30;98928.75;;;13.97;78.94
16664;BME280;8445;51.270;9.434;2022-11-15T09:14:18;98925.25;;;14.15;79.11
16664;BME280;8445;51.270;9.434;2022-11-15T09:17:02;98926.69;;;14.27;78.66
16664;BME280;8445;51.270;9.434;2022-11-15T09:19:47;98928.84;;;14.42;79.37
16664;BME280;8445;51.270;9.434;2022-11-15T09:22:31;98931.72;;;14.66;79.37
16664;BME280;8445;51.270;9.434;2022-11-15T09:25:16;98926.53;;;14.83;79.14
16664;BME280;8445;51.270;9.434;2022-11-15T09:28:05;98931.22;;;14.89;76.73
16664;BME280;8445;51.270;9.434;2022-11-15T09:30:50;98934.25;;;14.94;77.61
16664;BME280;8445;51.270;9.434;2022-11-15T09:33:35;98931.66;;;15.03;78.34
16664;BME280;8445;51.270;9.434;2022-11-15T09:36:20;98923.34;;;15.06;78.11
16664;BME280;8445;51.270;9.434;2022-11-15T09:39:04;98925.28;;;14.95;76.65
16664;BME280;8445;51.270;9.434;2022-11-15T09:42:12;98920.16;;;14.76;76.24
16664;BME280;8445;51.270;9.434;2022-11-15T09:45:57;98920.94;;;14.50;73.10
16664;BME280;8445;51.270;9.434;2022-11-15T09:48:56;98922.75;;;14.31;75.37
16664;BME280;8445;51.270;9.434;2022-11-15T09:51:45;98919.56;;;14.10;75.03
16664;BME280;8445;51.270;9.434;2022-11-15T09:54:38;98918.41;;;13.94;74.47
16664;BME280;8445;51.270;9.434;2022-11-15T09:57:15;98913.28;;;13.83;74.94
16664;BME280;8445;51.270;9.434;2022-11-15T10:03:09;98919.41;;;14.29;76.64
16664;BME280;8445;51.270;9.434;2022-11-15T10:05:42;98920.94;;;14.50;73.63
16664;BME280;8445;51.270;9.434;2022-11-15T10:11:08;98919.91;;;14.87;77.20
16664;BME280;8445;51.270;9.434;2022-11-15T10:13:41;98913.94;;;14.93;77.14
16664;BME280;8445;51.270;9.434;2022-11-15T10:16:47;98908.00;;;15.00;75.39
16664;BME280;8445;51.270;9.434;2022-11-15T10:19:52;98902.53;;;15.01;75.59
16664;BME280;8445;51.270;9.434;2022-11-15T10:22:39;98897.72;;;15.05;75.23
16664;BME280;8445;51.270;9.434;2022-11-15T10:25:17;98896.88;;;15.04;76.88
16664;BME280;8445;51.270;9.434;2022-11-15T10:27:50;98890.59;;;15.14;77.11
16664;BME280;8445;51.270;9.434;2022-11-15T10:30:20;98895.84;;;15.32;76.02
16664;BME280;8445;51.270;9.434;2022-11-15T10:32:49;98890.56;;;15.40;76.40
16664;BME280;8445;51.270;9.434;2022-11-15T10:35:24;98882.28;;;15.51;77.51
16664;BME280;8445;51.270;9.434;2022-11-15T10:37:50;98884.34;;;15.74;77.93
16664;BME280;8445;51.270;9.434;2022-11-15T10:40:24;98884.25;;;15.92;75.68
16664;BME280;8445;51.270;9.434;2022-11-15T10:45:36;98864.63;;;16.10;77.62
16664;BME280;8445;51.270;9.434;2022-11-15T10:48:30;98867.31;;;16.18;75.92
16664;BME280;8445;51.270;9.434;2022-11-15T10:50:56;98864.47;;;16.36;76.50
16664;BME280;8445;51.270;9.434;2022-11-15T10:53:35;98864.78;;;16.50;74.59
16664;BME280;8445;51.270;9.434;2022-11-15T10:56:09;98851.75;;;16.55;74.20
16664;BME280;8445;51.270;9.434;2022-11-15T10:58:42;98856.44;;;16.61;74.16
16664;BME280;8445;51.270;9.434;2022-11-15T11:01:22;98848.09;;;16.56;73.39
16664;BME280;8445;51.270;9.434;2022-11-15T11:04:21;98852.44;;;16.49;71.94
16664;BME280;8445;51.270;9.434;2022-11-15T11:06:59;98855.47;;;16.37;68.26
16664;BME280;8445;51.270;9.434;2022-11-15T11:09:35;98847.28;;;16.30;73.85
16664;BME280;8445;51.270;9.434;2022-11-15T11:12:03;98836.09;;;16.27;74.11
16664;BME280;8445;51.270;9.434;2022-11-15T11:14:33;98846.94;;;16.25;74.17
16664;BME280;8445;51.270;9.434;2022-11-15T11:17:32;98842.78;;;16.39;73.40
16664;BME280;8445;51.270;9.434;2022-11-15T11:29:23;98828.38;;;16.65;73.15
16664;BME280;8445;51.270;9.434;2022-11-15T11:32:03;98830.56;;;16.70;74.09
16664;BME280;8445;51.270;9.434;2022-11-15T11:37:49;98831.38;;;16.79;72.36
16664;BME280;8445;51.270;9.434;2022-11-15T11:47:11;98830.38;;;16.63;73.38
16664;BME280;8445;51.270;9.434;2022-11-15T11:50:01;98820.38;;;16.57;71.91
16664;BME280;8445;51.270;9.434;2022-11-15T11:53:16;98812.69;;;16.62;71.55
16664;BME280;8445;51.270;9.434;2022-11-15T11:55:50;98810.53;;;16.66;71.26
16664;BME280;8445;51.270;9.434;2022-11-15T11:58:23;98794.34;;;16.67;72.64
16664;BME280;8445;51.270;9.434;2022-11-15T12:00:59;98799.53;;;16.69;72.31
16664;BME280;8445;51.270;9.434;2022-11-15T12:03:49;98794.34;;;16.59;68.55
16664;BME280;8445;51.270;9.434;2022-11-15T12:06:33;98800.38;;;16.53;71.72
16664;BME280;8445;51.270;9.434;2022-11-15T12:15:04;98761.72;;;16.32;69.42
16664;BME280;8445;51.270;9.434;2022-11-15T12:17:38;98784.22;;;16.29;72.50
16664;BME280;8445;51.270;9.434;2022-11-15T12:20:23;98774.53;;;16.20;68.51
16664;BME280;8445;51.270;9.434;2022-11-15T12:23:11;98759.72;;;16.18;71.33
16664;BME280;8445;51.270;9.434;2022-11-15T12:25:54;98761.72;;;16.15;71.46
16664;BME280;8445;51.270;9.434;2022-11-15T12:28:49;98760.38;;;16.11;71.43
16664;BME280;8445;51.270;9.434;2022-11-15T12:31:39;98760.06;;;16.14;71.52
16664;BME280;8445;51.270;9.434;2022-11-15T12:34:38;98748.91;;;16.11;68.57
16664;BME280;8445;51.270;9.434;2022-11-15T12:43:32;98749.38;;;15.98;69.98
16664;BME280;8445;51.270;9.434;2022-11-15T12:45:47;98741.41;;;15.90;71.32
16664;BME280;8445;51.270;9.434;2022-11-15T12:53:30;98736.03;;;15.81;68.78
16664;BME280;8445;51.270;9.434;2022-11-15T12:58:59;98724.38;;;15.74;67.73
16664;BME280;8445;51.270;9.434;2022-11-15T13:07:04;98707.03;;;15.70;68.58
16664;BME280;8445;51.270;9.434;2022-11-15T13:14:51;98709.84;;;15.77;69.95
16664;BME280;8445;51.270;9.434;2022-11-15T13:17:38;98705.38;;;15.77;68.57
16664;BME280;8445;51.270;9.434;2022-11-15T13:22:48;98704.03;;;15.73;67.29
16664;BME280;8445;51.270;9.434;2022-11-15T13:30:53;98690.19;;;15.61;69.72
16664;BME280;8445;51.270;9.434;2022-11-15T13:33:27;98688.69;;;15.59;69.61
16664;BME280;8445;51.270;9.434;2022-11-15T13:35:59;98691.03;;;15.62;70.05
16664;BME280;8445;51.270;9.434;2022-11-15T13:38:30;98696.84;;;15.65;69.89
16664;BME280;8445;51.270;9.434;2022-11-15T13:40:59;98701.69;;;15.70;70.21
16664;BME280;8445;51.270;9.434;2022-11-15T13:43:29;98702.03;;;15.75;69.70
16664;BME280;8445;51.270;9.434;2022-11-15T13:46:21;98692.19;;;15.84;69.56
16664;BME280;8445;51.270;9.434;2022-11-15T13:49:01;98693.03;;;15.93;68.53
16664;BME280;8445;51.270;9.434;2022-11-15T13:54:20;98679.69;;;16.01;68.95
16664;BME280;8445;51.270;9.434;2022-11-15T13:56:54;98675.53;;;15.98;69.48
16664;BME280;8445;51.270;9.434;2022-11-15T13:59:27;98676.56;;;15.97;69.76
16664;BME280;8445;51.270;9.434;2022-11-15T14:02:19;98670.53;;;15.95;69.26
16664;BME280;8445;51.270;9.434;2022-11-15T14:04:52;98668.69;;;15.96;69.33
16664;BME280;8445;51.270;9.434;2022-11-15T14:07:23;98662.53;;;16.04;69.52
16664;BME280;8445;51.270;9.434;2022-11-15T14:09:49;98666.16;;;16.19;70.38
16664;BME280;8445;51.270;9.434;2022-11-15T14:12:33;98662.31;;;16.30;68.82
16664;BME280;8445;51.270;9.434;2022-11-15T14:15:31;98653.97;;;16.25;67.25
16664;BME280;8445;51.270;9.434;2022-11-15T14:18:01;98652.31;;;16.15;68.96
16664;BME280;8445;51.270;9.434;2022-11-15T14:20:32;98656.34;;;16.03;68.60
16664;BME280;8445;51.270;9.434;2022-11-15T14:23:17;98653.03;;;15.84;67.11
16664;BME280;8445;51.270;9.434;2022-11-15T14:25:53;98644.72;;;15.63;68.07
16664;BME280;8445;51.270;9.434;2022-11-15T14:30:51;98638.03;;;15.34;68.78
16664;BME280;8445;51.270;9.434;2022-11-15T14:35:52;98625.41;;;15.19;69.23
16664;BME280;8445;51.270;9.434;2022-11-15T14:38:18;98619.22;;;15.10;68.88
16664;BME280;8445;51.270;9.434;2022-11-15T14:40:44;98634.53;;;15.00;68.96
16664;BME280;8445;51.270;9.434;2022-11-15T14:43:14;98636.66;;;14.96;69.21
16664;BME280;8445;51.270;9.434;2022-11-15T14:45:43;98623.69;;;14.93;69.17
16664;BME280;8445;51.270;9.434;2022-11-15T14:48:09;98625.00;;;14.89;69.03
16664;BME280;8445;51.270;9.434;2022-11-15T14:50:35;98627.31;;;14.84;69.49
16664;BME280;8445;51.270;9.434;2022-11-15T14:53:02;98625.31;;;14.78;69.13
16664;BME280;8445;51.270;9.434;2022-11-15T14:55:35;98624.47;;;14.69;68.94
16664;BME280;8445;51.270;9.434;2022-11-15T14:58:03;98626.06;;;14.62;68.93
16664;BME280;8445;51.270;9.434;2022-11-15T15:00:34;98621.56;;;14.54;68.96
16664;BME280;8445;51.270;9.434;2022-11-15T15:03:01;98619.53;;;14.48;68.96
16664;BME280;8445;51.270;9.434;2022-11-15T15:05:38;98614.53;;;14.45;68.50
16664;BME280;8445;51.270;9.434;2022-11-15T15:08:11;98617.50;;;14.42;68.29
16664;BME280;8445;51.270;9.434;2022-11-15T15:10:44;98604.53;;;14.38;68.18
16664;BME280;8445;51.270;9.434;2022-11-15T15:13:31;98612.00;;;14.43;68.02
16664;BME280;8445;51.270;9.434;2022-11-15T15:15:57;98604.19;;;14.33;68.02
16664;BME280;8445;51.270;9.434;2022-11-15T15:18:23;98605.47;;;14.29;67.76
16664;BME280;8445;51.270;9.434;2022-11-15T15:20:57;98602.31;;;14.26;67.97
16664;BME280;8445;51.270;9.434;2022-11-15T15:23:27;98598.63;;;14.18;67.92
16664;BME280;8445;51.270;9.434;2022-11-15T15:25:57;98598.09;;;14.15;67.90
16664;BME280;8445;51.270;9.434;2022-11-15T15:28:24;98599.56;;;14.09;68.05
16664;BME280;8445;51.270;9.434;2022-11-15T15:30:51;98598.72;;;14.00;68.03
16664;BME280;8445;51.270;9.434;2022-11-15T15:33:19;98597.38;;;13.96;68.15
16664;BME280;8445;51.270;9.434;2022-11-15T15:35:54;98591.38;;;13.94;68.33
16664;BME280;8445;51.270;9.434;2022-11-15T15:38:20;98586.50;;;13.89;68.39
16664;BME280;8445;51.270;9.434;2022-11-15T15:40:47;98593.13;;;13.85;68.33
16664;BME280;8445;51.270;9.434;2022-11-15T15:43:13;98597.16;;;13.63;69.18
16664;BME280;8445;51.270;9.434;2022-11-15T15:45:40;98591.63;;;13.56;69.47
16664;BME280;8445;51.270;9.434;2022-11-15T15:48:13;98593.44;;;13.56;69.64
16664;BME280;8445;51.270;9.434;2022-11-15T15:50:39;98594.59;;;13.53;69.84
16664;BME280;8445;51.270;9.434;2022-11-15T15:53:05;98594.75;;;13.52;69.63
16664;BME280;8445;51.270;9.434;2022-11-15T15:55:31;98597.41;;;13.52;69.81
16664;BME280;8445;51.270;9.434;2022-11-15T15:57:58;98599.41;;;13.49;69.65
16664;BME280;8445;51.270;9.434;2022-11-15T16:00:25;98596.06;;;13.47;69.57
16664;BME280;8445;51.270;9.434;2022-11-15T16:02:53;98590.88;;;13.46;69.78
16664;BME280;8445;51.270;9.434;2022-11-15T16:05:19;98589.22;;;13.45;69.82
16664;BME280;8445;51.270;9.434;2022-11-15T16:07:46;98587.72;;;13.42;69.77
16664;BME280;8445;51.270;9.434;2022-11-15T16:10:23;98581.56;;;13.42;69.79
16664;BME280;8445;51.270;9.434;2022-11-15T16:12:54;98582.00;;;13.37;69.75
16664;BME280;8445;51.270;9.434;2022-11-15T16:15:23;98575.03;;;13.36;69.64
16664;BME280;8445;51.270;9.434;2022-11-15T16:17:55;98578.66;;;13.35;69.83
16664;BME280;8445;51.270;9.434;2022-11-15T16:20:42;98569.03;;;13.34;69.82
16664;BME280;8445;51.270;9.434;2022-11-15T16:23:18;98571.31;;;13.29;69.54
16664;BME280;8445;51.270;9.434;2022-11-15T16:25:54;98571.63;;;13.26;69.37
16664;BME280;8445;51.270;9.434;2022-11-15T16:28:30;98561.47;;;13.21;69.29